Dillon, SC (29536)

5:34 PM EST on March 05, 2015 (GMT -0500)
Marion County | Change Station
CLOSE
Current Station
Airport
Location: Marion,
Elevation: 92 ft
Nearby Weather Stations
Active Advisory: Flood Warning Active Notice: Local Storm Report

Elev 92 ft 34.18 °N, 79.33 °W | Updated -29 second ago

Rain
Rain
43 °F
Feels Like 39 °F
N
7
Wind Variable Wind from NE

Today
High -- | Low -- °F
--% Chance of Precip.
Yesterday
High -- | Low -- °F
Precip. -- in
6:41 AM 6:16 PM
Full, 100% visible
Pressure 30.00 in
Visibility 7.0 miles
Clouds Mostly Cloudy 800 ft
Overcast 2400 ft
Windchill 39 °F
Dew Point 43 °F
Humidity 100%
Rainfall 0.04 in
Snow Depth Not available.
UV 0 out of 12
Pollen 7.10 out of 12
Air Quality Not available.
Flu Activity Not available.
METAR KMAO 052235Z AUTO 05006KT 7SM RA BKN008 OVC024 06/06 A3000 RMK AO2 P0004

More Conditions Fewer Conditions

Pressure 30.00 in
Visibility 7.0 miles
Clouds Mostly Cloudy 800 ft
Overcast 2400 ft
Windchill 39 °F
Dew Point 43 °F
Humidity 100%
Rainfall 0.04 in
Snow Depth Not available.
UV 0 out of 12
Pollen 7.10 out of 12
Air Quality Not available.
Flu Activity Not available.
METAR KMAO 052235Z AUTO 05006KT 7SM RA BKN008 OVC024 06/06 A3000 RMK AO2 P0004

More Conditions Fewer Conditions

10-Day Weather Forecast

Almanac

Astronomy

Mar. 05, 2015 Rise Set
Actual Time
Civil Twilight
Nautical Twilight
Astronomical Twilight
Moon
Length of Visible Light
Length of Day
Tomorrow will be .
, % of the Moon is Illuminated

Today's Extremes

State Highs State Lows

Community

WunderPhotos

Upload Photos

1,803,020 photos uploaded!

WunderBlogs® & News

Nearby

Air Quality

  Air Quality AQ Index Pollutant
Not available.

Snow Depth

Station Depth Elevation

Earthquake Activity

City Distance Mag. Time & Date
Minimum magnitude displayed is 2.5.

Coastal Water Temperatures

Place Temperature

Nearby Weather Stations

Flood Warning
Statement as of 10:28 AM EST on March 05, 2015

The Flood Warning continues for
the little Pee Dee at Galivants Ferry.
* Until further notice.
* At 10:00 am Thursday the stage was 9.8 feet.
* Flood stage is 9.0 feet.
* Minor flooding is occurring and minor flooding is forecast.
* Forecast... the river will continue to fall to a stage of 9.6 feet by tomorrow
morning.
* Impact... at 9.0 feet... flood waters will begin to affect residential yards in
the Fork retch community upstream of Galivants Ferry near the town of Nichols.
Swampland flooding becomes noticeable and natural boat landings will be
flooded.


Lat... Lon 3423 7921 3419 7910 3405 7920 3398 7928
          3400 7938 3409 7930